Boston, MA

6:04 PM EDT on July 02, 2015 (GMT -0400)
North End waterfront Boston | | Change Station
CLOSE
Current Station
Personal Weather Station
Location: Boston, MA
Elevation: 39 ft
Nearby Weather Stations

Elev 39 ft 42.37 °N, 71.05 °W | Updated 15 seconds ago

Overcast
Overcast
77.7 °F
Feels Like 79 °F
N
3.6
Wind Variable Wind from South
Gusts 4.9 mph

Today
High -- | Low -- °F
--% Chance of Precip.
Yesterday
High -- | Low -- °F
Precip. -- in
5:11 AM 8:24 PM
Full, 99% visible
Pressure 29.86 in
Visibility 10.0 miles
Clouds Few 5500 ft
Scattered Clouds 20000 ft
Overcast 25000 ft
Heat Index 79 °F
Dew Point 56 °F
Humidity 48%
Rainfall 0.00 in
Snow Depth Not available.
UV 1.0 out of 12
Pollen 5.90 out of 12
Air Quality Not available.
Flu Activity Not available.
METAR KBOS 022154Z 26010G15KT 10SM FEW055 SCT200 OVC250 25/13 A2985 RMK AO2 SLP109 T02500133

More Conditions Fewer Conditions

Pressure 29.86 in
Visibility 10.0 miles
Clouds Few 5500 ft
Scattered Clouds 20000 ft
Overcast 25000 ft
Heat Index 79 °F
Dew Point 56 °F
Humidity 48%
Rainfall 0.00 in
Snow Depth Not available.
UV 1.0 out of 12
Pollen 5.90 out of 12
Air Quality Not available.
Flu Activity Not available.
METAR KBOS 022154Z 26010G15KT 10SM FEW055 SCT200 OVC250 25/13 A2985 RMK AO2 SLP109 T02500133

More Conditions Fewer Conditions

10-Day Weather Forecast

×

Almanac

Astronomy

Jul. 02, 2015 Rise Set
Actual Time
Civil Twilight
Nautical Twilight
Astronomical Twilight
Moon
Length of Visible Light
Length of Day
Tomorrow will be .
, % of the Moon is Illuminated

Today's Extremes

State Highs State Lows

Community

WunderPhotos

Upload Photos

1,834,554 photos uploaded!

WunderBlogs® & News

Nearby

Air Quality

  Air Quality AQ Index Pollutant
Not available.

Snow Depth

Station Depth Elevation

Earthquake Activity

City Distance Mag. Time & Date
Minimum magnitude displayed is 2.5.

Coastal Water Temperatures

Place Temperature

Stations

Nearby Weather Stations

Station Location Temp. Windchill Dew Point Humidity Wind Precip. Elev Updated Type